sensor_id;sensor_type;location;lat;lon;timestamp;P1;durP1;ratioP1;P2;durP2;ratioP2
20415;SDS011;10367;52.202;5.996;2024-01-30T00:00:01;27.23;;;17.07;;
20415;SDS011;10367;52.202;5.996;2024-01-30T00:02:31;19.63;;;13.90;;
20415;SDS011;10367;52.202;5.996;2024-01-30T00:05:00;25.23;;;15.83;;
20415;SDS011;10367;52.202;5.996;2024-01-30T00:07:30;26.17;;;16.80;;
20415;SDS011;10367;52.202;5.996;2024-01-30T00:09:59;30.03;;;16.70;;
20415;SDS011;10367;52.202;5.996;2024-01-30T00:12:28;21.10;;;13.87;;
20415;SDS011;10367;52.202;5.996;2024-01-30T00:14:59;27.03;;;17.27;;
20415;SDS011;10367;52.202;5.996;2024-01-30T00:17:28;20.93;;;14.90;;
20415;SDS011;10367;52.202;5.996;2024-01-30T00:19:57;21.27;;;14.63;;
20415;SDS011;10367;52.202;5.996;2024-01-30T00:22:26;17.80;;;14.03;;
20415;SDS011;10367;52.202;5.996;2024-01-30T00:24:57;22.50;;;15.73;;
20415;SDS011;10367;52.202;5.996;2024-01-30T00:27:26;28.37;;;16.40;;
20415;SDS011;10367;52.202;5.996;2024-01-30T00:29:55;20.27;;;14.63;;
20415;SDS011;10367;52.202;5.996;2024-01-30T00:32:25;28.47;;;17.53;;
20415;SDS011;10367;52.202;5.996;2024-01-30T00:34:53;26.77;;;17.07;;
20415;SDS011;10367;52.202;5.996;2024-01-30T00:37:22;21.73;;;15.23;;
20415;SDS011;10367;52.202;5.996;2024-01-30T00:39:51;24.23;;;16.03;;
20415;SDS011;10367;52.202;5.996;2024-01-30T00:42:20;21.13;;;14.50;;
20415;SDS011;10367;52.202;5.996;2024-01-30T00:44:50;27.53;;;16.57;;
20415;SDS011;10367;52.202;5.996;2024-01-30T00:47:19;20.40;;;14.23;;
20415;SDS011;10367;52.202;5.996;2024-01-30T00:49:49;28.63;;;16.77;;
20415;SDS011;10367;52.202;5.996;2024-01-30T00:52:18;23.33;;;15.37;;
20415;SDS011;10367;52.202;5.996;2024-01-30T00:54:46;22.27;;;14.90;;
20415;SDS011;10367;52.202;5.996;2024-01-30T00:57:15;20.40;;;14.73;;
20415;SDS011;10367;52.202;5.996;2024-01-30T00:59:44;25.57;;;16.47;;
20415;SDS011;10367;52.202;5.996;2024-01-30T01:02:13;24.63;;;15.47;;
20415;SDS011;10367;52.202;5.996;2024-01-30T01:04:44;19.80;;;14.20;;
20415;SDS011;10367;52.202;5.996;2024-01-30T01:07:14;23.10;;;16.10;;
20415;SDS011;10367;52.202;5.996;2024-01-30T01:09:43;27.67;;;16.87;;
20415;SDS011;10367;52.202;5.996;2024-01-30T01:12:12;20.17;;;13.80;;
20415;SDS011;10367;52.202;5.996;2024-01-30T01:14:40;22.77;;;15.63;;
20415;SDS011;10367;52.202;5.996;2024-01-30T01:17:09;24.17;;;13.70;;
20415;SDS011;10367;52.202;5.996;2024-01-30T01:19:38;16.23;;;12.37;;
20415;SDS011;10367;52.202;5.996;2024-01-30T01:22:07;17.17;;;12.07;;
20415;SDS011;10367;52.202;5.996;2024-01-30T01:24:37;19.60;;;13.17;;
20415;SDS011;10367;52.202;5.996;2024-01-30T01:27:06;20.87;;;14.37;;
20415;SDS011;10367;52.202;5.996;2024-01-30T01:29:35;18.20;;;13.97;;
20415;SDS011;10367;52.202;5.996;2024-01-30T01:32:04;21.93;;;15.37;;
20415;SDS011;10367;52.202;5.996;2024-01-30T01:34:33;17.60;;;13.67;;
20415;SDS011;10367;52.202;5.996;2024-01-30T01:37:02;26.53;;;14.03;;
20415;SDS011;10367;52.202;5.996;2024-01-30T01:39:31;20.80;;;14.37;;
20415;SDS011;10367;52.202;5.996;2024-01-30T01:42:01;20.13;;;14.60;;
20415;SDS011;10367;52.202;5.996;2024-01-30T01:44:30;18.63;;;13.50;;
20415;SDS011;10367;52.202;5.996;2024-01-30T01:46:59;28.27;;;16.47;;
20415;SDS011;10367;52.202;5.996;2024-01-30T01:49:27;24.40;;;15.47;;
20415;SDS011;10367;52.202;5.996;2024-01-30T01:51:57;22.80;;;15.57;;
20415;SDS011;10367;52.202;5.996;2024-01-30T01:54:26;20.80;;;14.47;;
20415;SDS011;10367;52.202;5.996;2024-01-30T01:56:58;20.60;;;13.90;;
20415;SDS011;10367;52.202;5.996;2024-01-30T01:59:28;17.67;;;12.67;;
20415;SDS011;10367;52.202;5.996;2024-01-30T02:01:57;23.37;;;15.40;;
20415;SDS011;10367;52.202;5.996;2024-01-30T02:04:26;21.30;;;13.67;;
20415;SDS011;10367;52.202;5.996;2024-01-30T02:06:55;18.13;;;13.83;;
20415;SDS011;10367;52.202;5.996;2024-01-30T02:09:24;22.10;;;14.80;;
20415;SDS011;10367;52.202;5.996;2024-01-30T02:11:53;22.77;;;15.07;;
20415;SDS011;10367;52.202;5.996;2024-01-30T02:14:22;19.10;;;14.23;;
20415;SDS011;10367;52.202;5.996;2024-01-30T02:16:56;20.10;;;14.20;;
20415;SDS011;10367;52.202;5.996;2024-01-30T02:19:24;22.57;;;14.70;;
20415;SDS011;10367;52.202;5.996;2024-01-30T02:21:54;22.67;;;15.20;;
20415;SDS011;10367;52.202;5.996;2024-01-30T02:24:23;22.40;;;13.60;;
20415;SDS011;10367;52.202;5.996;2024-01-30T02:26:52;17.93;;;13.43;;
20415;SDS011;10367;52.202;5.996;2024-01-30T02:29:21;23.17;;;14.63;;
20415;SDS011;10367;52.202;5.996;2024-01-30T02:31:49;18.73;;;13.03;;
20415;SDS011;10367;52.202;5.996;2024-01-30T02:34:19;23.47;;;14.63;;
20415;SDS011;10367;52.202;5.996;2024-01-30T02:36:48;22.67;;;14.60;;
20415;SDS011;10367;52.202;5.996;2024-01-30T02:39:18;26.13;;;15.07;;
20415;SDS011;10367;52.202;5.996;2024-01-30T02:41:47;22.97;;;14.97;;
20415;SDS011;10367;52.202;5.996;2024-01-30T02:44:15;27.77;;;14.90;;
20415;SDS011;10367;52.202;5.996;2024-01-30T02:46:44;22.33;;;15.37;;
20415;SDS011;10367;52.202;5.996;2024-01-30T02:49:13;20.83;;;14.80;;
20415;SDS011;10367;52.202;5.996;2024-01-30T02:51:42;24.33;;;15.27;;
20415;SDS011;10367;52.202;5.996;2024-01-30T02:54:10;22.37;;;15.20;;
20415;SDS011;10367;52.202;5.996;2024-01-30T02:56:40;20.97;;;13.63;;
20415;SDS011;10367;52.202;5.996;2024-01-30T02:59:09;25.13;;;14.63;;
20415;SDS011;10367;52.202;5.996;2024-01-30T03:01:43;22.67;;;14.00;;
20415;SDS011;10367;52.202;5.996;2024-01-30T03:04:13;19.40;;;14.07;;
20415;SDS011;10367;52.202;5.996;2024-01-30T03:06:44;18.03;;;12.97;;
20415;SDS011;10367;52.202;5.996;2024-01-30T03:09:15;31.30;;;16.77;;
20415;SDS011;10367;52.202;5.996;2024-01-30T03:11:46;25.40;;;16.83;;
20415;SDS011;10367;52.202;5.996;2024-01-30T03:14:15;27.00;;;15.73;;
20415;SDS011;10367;52.202;5.996;2024-01-30T03:16:44;22.40;;;14.33;;
20415;SDS011;10367;52.202;5.996;2024-01-30T03:19:13;21.30;;;13.87;;
20415;SDS011;10367;52.202;5.996;2024-01-30T03:21:42;22.93;;;15.47;;
20415;SDS011;10367;52.202;5.996;2024-01-30T03:24:10;30.57;;;16.93;;
20415;SDS011;10367;52.202;5.996;2024-01-30T03:26:39;21.83;;;14.27;;
20415;SDS011;10367;52.202;5.996;2024-01-30T03:29:09;24.07;;;15.73;;
20415;SDS011;10367;52.202;5.996;2024-01-30T03:31:38;19.53;;;13.47;;
20415;SDS011;10367;52.202;5.996;2024-01-30T03:34:07;26.70;;;15.73;;
20415;SDS011;10367;52.202;5.996;2024-01-30T03:36:36;28.47;;;16.30;;
20415;SDS011;10367;52.202;5.996;2024-01-30T03:39:05;24.47;;;14.97;;
20415;SDS011;10367;52.202;5.996;2024-01-30T03:41:34;21.43;;;14.50;;
20415;SDS011;10367;52.202;5.996;2024-01-30T03:44:03;21.90;;;15.47;;
20415;SDS011;10367;52.202;5.996;2024-01-30T03:46:33;17.17;;;13.07;;
20415;SDS011;10367;52.202;5.996;2024-01-30T03:49:02;24.57;;;15.50;;
20415;SDS011;10367;52.202;5.996;2024-01-30T03:51:31;22.70;;;15.80;;
20415;SDS011;10367;52.202;5.996;2024-01-30T03:53:59;26.13;;;16.33;;
20415;SDS011;10367;52.202;5.996;2024-01-30T03:56:28;23.77;;;14.90;;
20415;SDS011;10367;52.202;5.996;2024-01-30T03:58:57;27.37;;;16.73;;
20415;SDS011;10367;52.202;5.996;2024-01-30T04:01:27;21.63;;;14.20;;
20415;SDS011;10367;52.202;5.996;2024-01-30T04:03:57;19.87;;;14.30;;
20415;SDS011;10367;52.202;5.996;2024-01-30T04:06:26;21.77;;;14.03;;
20415;SDS011;10367;52.202;5.996;2024-01-30T04:08:55;24.77;;;15.80;;
20415;SDS011;10367;52.202;5.996;2024-01-30T04:11:24;25.07;;;16.20;;
20415;SDS011;10367;52.202;5.996;2024-01-30T04:13:52;24.83;;;15.17;;
20415;SDS011;10367;52.202;5.996;2024-01-30T04:16:21;20.50;;;14.63;;
20415;SDS011;10367;52.202;5.996;2024-01-30T04:18:50;28.10;;;16.47;;
20415;SDS011;10367;52.202;5.996;2024-01-30T04:21:21;19.83;;;14.13;;
20415;SDS011;10367;52.202;5.996;2024-01-30T04:23:50;25.27;;;15.30;;
20415;SDS011;10367;52.202;5.996;2024-01-30T04:26:19;22.53;;;15.00;;
20415;SDS011;10367;52.202;5.996;2024-01-30T04:28:48;23.30;;;16.47;;
20415;SDS011;10367;52.202;5.996;2024-01-30T04:31:17;20.20;;;14.50;;
20415;SDS011;10367;52.202;5.996;2024-01-30T04:33:46;17.33;;;12.93;;
20415;SDS011;10367;52.202;5.996;2024-01-30T04:36:15;18.70;;;12.70;;
20415;SDS011;10367;52.202;5.996;2024-01-30T04:38:45;20.90;;;14.87;;
20415;SDS011;10367;52.202;5.996;2024-01-30T04:41:14;24.00;;;15.47;;
20415;SDS011;10367;52.202;5.996;2024-01-30T04:43:42;23.93;;;15.03;;
20415;SDS011;10367;52.202;5.996;2024-01-30T04:46:11;22.53;;;12.87;;
20415;SDS011;10367;52.202;5.996;2024-01-30T04:48:40;17.57;;;13.43;;
20415;SDS011;10367;52.202;5.996;2024-01-30T04:51:09;19.67;;;13.43;;
20415;SDS011;10367;52.202;5.996;2024-01-30T04:53:38;18.73;;;13.33;;
20415;SDS011;10367;52.202;5.996;2024-01-30T04:56:08;20.33;;;14.43;;
20415;SDS011;10367;52.202;5.996;2024-01-30T04:58:36;17.00;;;12.67;;
20415;SDS011;10367;52.202;5.996;2024-01-30T05:01:05;18.80;;;13.67;;
20415;SDS011;10367;52.202;5.996;2024-01-30T05:03:34;22.33;;;14.27;;
20415;SDS011;10367;52.202;5.996;2024-01-30T05:06:03;21.27;;;15.27;;
20415;SDS011;10367;52.202;5.996;2024-01-30T05:08:32;23.13;;;14.23;;
20415;SDS011;10367;52.202;5.996;2024-01-30T05:11:04;22.37;;;15.40;;
20415;SDS011;10367;52.202;5.996;2024-01-30T05:13:35;24.37;;;16.00;;
20415;SDS011;10367;52.202;5.996;2024-01-30T05:16:04;20.93;;;15.30;;
20415;SDS011;10367;52.202;5.996;2024-01-30T05:18:33;23.07;;;15.47;;
20415;SDS011;10367;52.202;5.996;2024-01-30T05:21:02;24.37;;;15.27;;
20415;SDS011;10367;52.202;5.996;2024-01-30T05:23:31;22.27;;;13.93;;
20415;SDS011;10367;52.202;5.996;2024-01-30T05:26:00;25.43;;;14.77;;
20415;SDS011;10367;52.202;5.996;2024-01-30T05:28:29;17.83;;;13.40;;
20415;SDS011;10367;52.202;5.996;2024-01-30T05:30:59;23.83;;;14.93;;
20415;SDS011;10367;52.202;5.996;2024-01-30T05:33:28;24.87;;;15.00;;
20415;SDS011;10367;52.202;5.996;2024-01-30T05:35:57;25.47;;;16.03;;
20415;SDS011;10367;52.202;5.996;2024-01-30T05:38:25;19.20;;;13.53;;
20415;SDS011;10367;52.202;5.996;2024-01-30T05:40:54;24.77;;;15.43;;
20415;SDS011;10367;52.202;5.996;2024-01-30T05:43:24;25.10;;;15.40;;
20415;SDS011;10367;52.202;5.996;2024-01-30T05:45:53;18.07;;;12.73;;
20415;SDS011;10367;52.202;5.996;2024-01-30T05:48:23;19.50;;;14.53;;
20415;SDS011;10367;52.202;5.996;2024-01-30T05:50:52;19.47;;;14.47;;
20415;SDS011;10367;52.202;5.996;2024-01-30T05:53:21;17.07;;;12.87;;
20415;SDS011;10367;52.202;5.996;2024-01-30T05:55:50;18.00;;;12.70;;
20415;SDS011;10367;52.202;5.996;2024-01-30T05:58:19;19.07;;;14.77;;
20415;SDS011;10367;52.202;5.996;2024-01-30T06:00:48;21.03;;;15.20;;
20415;SDS011;10367;52.202;5.996;2024-01-30T06:03:17;21.93;;;15.67;;
20415;SDS011;10367;52.202;5.996;2024-01-30T06:05:47;21.33;;;13.67;;
20415;SDS011;10367;52.202;5.996;2024-01-30T06:08:16;21.73;;;14.70;;
20415;SDS011;10367;52.202;5.996;2024-01-30T06:10:45;19.47;;;13.63;;
20415;SDS011;10367;52.202;5.996;2024-01-30T06:13:14;21.83;;;14.00;;
20415;SDS011;10367;52.202;5.996;2024-01-30T06:15:43;23.73;;;15.87;;
20415;SDS011;10367;52.202;5.996;2024-01-30T06:18:12;23.90;;;16.40;;
20415;SDS011;10367;52.202;5.996;2024-01-30T06:20:41;23.97;;;16.07;;
20415;SDS011;10367;52.202;5.996;2024-01-30T06:23:11;20.10;;;15.57;;
20415;SDS011;10367;52.202;5.996;2024-01-30T06:25:41;21.87;;;13.97;;
20415;SDS011;10367;52.202;5.996;2024-01-30T06:28:10;16.40;;;13.37;;
20415;SDS011;10367;52.202;5.996;2024-01-30T06:30:38;22.17;;;13.80;;
20415;SDS011;10367;52.202;5.996;2024-01-30T06:33:07;20.33;;;14.97;;
20415;SDS011;10367;52.202;5.996;2024-01-30T06:35:37;24.97;;;15.20;;
20415;SDS011;10367;52.202;5.996;2024-01-30T06:38:13;18.90;;;13.60;;
20415;SDS011;10367;52.202;5.996;2024-01-30T06:40:42;18.73;;;13.20;;
20415;SDS011;10367;52.202;5.996;2024-01-30T06:43:11;17.73;;;13.90;;
20415;SDS011;10367;52.202;5.996;2024-01-30T06:45:40;16.53;;;13.33;;
20415;SDS011;10367;52.202;5.996;2024-01-30T06:48:09;22.10;;;13.83;;
20415;SDS011;10367;52.202;5.996;2024-01-30T06:50:38;18.37;;;12.77;;
20415;SDS011;10367;52.202;5.996;2024-01-30T06:53:07;19.57;;;15.00;;
20415;SDS011;10367;52.202;5.996;2024-01-30T06:55:37;22.03;;;14.97;;
20415;SDS011;10367;52.202;5.996;2024-01-30T06:58:05;18.07;;;14.30;;
20415;SDS011;10367;52.202;5.996;2024-01-30T07:00:34;16.60;;;13.13;;
20415;SDS011;10367;52.202;5.996;2024-01-30T07:03:03;17.37;;;12.60;;
20415;SDS011;10367;52.202;5.996;2024-01-30T07:05:33;17.67;;;14.10;;
20415;SDS011;10367;52.202;5.996;2024-01-30T07:08:01;18.20;;;13.03;;
20415;SDS011;10367;52.202;5.996;2024-01-30T07:10:30;19.67;;;14.80;;
20415;SDS011;10367;52.202;5.996;2024-01-30T07:13:01;26.40;;;15.17;;
20415;SDS011;10367;52.202;5.996;2024-01-30T07:15:31;20.50;;;14.93;;
20415;SDS011;10367;52.202;5.996;2024-01-30T07:17:59;20.17;;;14.50;;
20415;SDS011;10367;52.202;5.996;2024-01-30T07:20:28;19.30;;;14.67;;
20415;SDS011;10367;52.202;5.996;2024-01-30T07:22:58;21.60;;;15.30;;
20415;SDS011;10367;52.202;5.996;2024-01-30T07:25:27;21.20;;;14.20;;
20415;SDS011;10367;52.202;5.996;2024-01-30T07:27:57;22.70;;;16.20;;
20415;SDS011;10367;52.202;5.996;2024-01-30T07:30:27;19.10;;;14.40;;
20415;SDS011;10367;52.202;5.996;2024-01-30T07:32:55;23.63;;;15.57;;
20415;SDS011;10367;52.202;5.996;2024-01-30T07:35:24;19.80;;;14.73;;
20415;SDS011;10367;52.202;5.996;2024-01-30T07:37:53;21.60;;;14.90;;
20415;SDS011;10367;52.202;5.996;2024-01-30T07:40:22;20.87;;;14.40;;
20415;SDS011;10367;52.202;5.996;2024-01-30T07:42:50;21.00;;;14.57;;
20415;SDS011;10367;52.202;5.996;2024-01-30T07:45:21;23.00;;;15.43;;
20415;SDS011;10367;52.202;5.996;2024-01-30T07:47:52;25.83;;;15.97;;
20415;SDS011;10367;52.202;5.996;2024-01-30T07:50:21;18.67;;;14.93;;
20415;SDS011;10367;52.202;5.996;2024-01-30T07:52:50;18.07;;;14.70;;
20415;SDS011;10367;52.202;5.996;2024-01-30T07:55:21;19.00;;;15.00;;
20415;SDS011;10367;52.202;5.996;2024-01-30T07:57:51;21.57;;;14.60;;
20415;SDS011;10367;52.202;5.996;2024-01-30T08:00:20;18.30;;;14.00;;
20415;SDS011;10367;52.202;5.996;2024-01-30T08:02:49;17.53;;;14.00;;
20415;SDS011;10367;52.202;5.996;2024-01-30T08:05:22;25.90;;;14.77;;
20415;SDS011;10367;52.202;5.996;2024-01-30T08:07:51;22.23;;;15.87;;
20415;SDS011;10367;52.202;5.996;2024-01-30T08:10:20;20.40;;;16.47;;
20415;SDS011;10367;52.202;5.996;2024-01-30T08:12:49;23.80;;;16.07;;
20415;SDS011;10367;52.202;5.996;2024-01-30T08:15:23;23.07;;;16.13;;
20415;SDS011;10367;52.202;5.996;2024-01-30T08:18:00;18.10;;;14.80;;
20415;SDS011;10367;52.202;5.996;2024-01-30T08:20:31;20.80;;;13.83;;
20415;SDS011;10367;52.202;5.996;2024-01-30T08:23:00;20.57;;;15.37;;
20415;SDS011;10367;52.202;5.996;2024-01-30T08:25:28;19.87;;;15.60;;
20415;SDS011;10367;52.202;5.996;2024-01-30T08:27:57;20.30;;;15.43;;
20415;SDS011;10367;52.202;5.996;2024-01-30T08:30:27;19.67;;;15.47;;
20415;SDS011;10367;52.202;5.996;2024-01-30T08:32:56;18.03;;;15.13;;
20415;SDS011;10367;52.202;5.996;2024-01-30T08:35:25;16.33;;;13.83;;
20415;SDS011;10367;52.202;5.996;2024-01-30T08:37:55;20.83;;;15.20;;
20415;SDS011;10367;52.202;5.996;2024-01-30T08:40:24;18.03;;;14.90;;
20415;SDS011;10367;52.202;5.996;2024-01-30T08:42:53;24.73;;;15.20;;
20415;SDS011;10367;52.202;5.996;2024-01-30T08:45:22;22.27;;;15.20;;
20415;SDS011;10367;52.202;5.996;2024-01-30T08:47:51;16.83;;;14.30;;
20415;SDS011;10367;52.202;5.996;2024-01-30T08:50:20;20.77;;;16.10;;
20415;SDS011;10367;52.202;5.996;2024-01-30T08:52:48;21.47;;;15.97;;
20415;SDS011;10367;52.202;5.996;2024-01-30T08:55:19;20.13;;;15.63;;
20415;SDS011;10367;52.202;5.996;2024-01-30T08:57:48;18.10;;;15.57;;
20415;SDS011;10367;52.202;5.996;2024-01-30T09:00:17;24.53;;;17.53;;
20415;SDS011;10367;52.202;5.996;2024-01-30T09:02:45;17.87;;;15.37;;
20415;SDS011;10367;52.202;5.996;2024-01-30T09:05:14;20.40;;;16.20;;
20415;SDS011;10367;52.202;5.996;2024-01-30T09:07:43;18.97;;;15.97;;
20415;SDS011;10367;52.202;5.996;2024-01-30T09:10:13;20.70;;;16.07;;
20415;SDS011;10367;52.202;5.996;2024-01-30T09:12:48;18.30;;;14.43;;
20415;SDS011;10367;52.202;5.996;2024-01-30T09:15:17;19.53;;;15.53;;
20415;SDS011;10367;52.202;5.996;2024-01-30T09:17:47;19.37;;;15.20;;
20415;SDS011;10367;52.202;5.996;2024-01-30T09:20:16;18.30;;;14.20;;
20415;SDS011;10367;52.202;5.996;2024-01-30T09:22:46;21.17;;;16.30;;
20415;SDS011;10367;52.202;5.996;2024-01-30T09:25:21;21.83;;;16.43;;
20415;SDS011;10367;52.202;5.996;2024-01-30T09:28:00;18.47;;;14.83;;
20415;SDS011;10367;52.202;5.996;2024-01-30T09:30:40;22.27;;;16.47;;
20415;SDS011;10367;52.202;5.996;2024-01-30T09:33:08;23.73;;;17.27;;
20415;SDS011;10367;52.202;5.996;2024-01-30T09:35:37;20.33;;;16.00;;
20415;SDS011;10367;52.202;5.996;2024-01-30T09:38:06;25.03;;;17.77;;
20415;SDS011;10367;52.202;5.996;2024-01-30T09:40:35;17.33;;;15.43;;
20415;SDS011;10367;52.202;5.996;2024-01-30T09:43:06;28.00;;;17.83;;
20415;SDS011;10367;52.202;5.996;2024-01-30T09:45:34;23.13;;;17.53;;
20415;SDS011;10367;52.202;5.996;2024-01-30T09:48:03;25.53;;;17.80;;
20415;SDS011;10367;52.202;5.996;2024-01-30T09:50:33;21.87;;;17.43;;
20415;SDS011;10367;52.202;5.996;2024-01-30T09:53:04;26.40;;;18.67;;
20415;SDS011;10367;52.202;5.996;2024-01-30T09:55:34;20.07;;;16.50;;
20415;SDS011;10367;52.202;5.996;2024-01-30T09:58:06;23.70;;;19.57;;
20415;SDS011;10367;52.202;5.996;2024-01-30T10:00:35;25.17;;;18.67;;
20415;SDS011;10367;52.202;5.996;2024-01-30T10:03:04;27.63;;;17.70;;
20415;SDS011;10367;52.202;5.996;2024-01-30T10:05:32;24.23;;;16.93;;
20415;SDS011;10367;52.202;5.996;2024-01-30T10:08:05;27.70;;;18.77;;
20415;SDS011;10367;52.202;5.996;2024-01-30T10:10:35;21.80;;;17.40;;
20415;SDS011;10367;52.202;5.996;2024-01-30T10:13:06;24.73;;;19.13;;
20415;SDS011;10367;52.202;5.996;2024-01-30T10:15:34;22.60;;;18.93;;
20415;SDS011;10367;52.202;5.996;2024-01-30T10:18:08;26.30;;;19.43;;
20415;SDS011;10367;52.202;5.996;2024-01-30T10:20:37;20.80;;;18.17;;
20415;SDS011;10367;52.202;5.996;2024-01-30T10:23:06;24.97;;;19.30;;
20415;SDS011;10367;52.202;5.996;2024-01-30T10:25:35;23.93;;;18.47;;
20415;SDS011;10367;52.202;5.996;2024-01-30T10:28:07;32.27;;;19.37;;
20415;SDS011;10367;52.202;5.996;2024-01-30T10:30:36;22.27;;;18.10;;
20415;SDS011;10367;52.202;5.996;2024-01-30T10:33:18;21.67;;;17.77;;
20415;SDS011;10367;52.202;5.996;2024-01-30T10:35:57;27.93;;;18.77;;
20415;SDS011;10367;52.202;5.996;2024-01-30T10:38:29;23.67;;;18.33;;
20415;SDS011;10367;52.202;5.996;2024-01-30T10:40:59;24.50;;;19.23;;
20415;SDS011;10367;52.202;5.996;2024-01-30T10:43:30;20.80;;;17.80;;
20415;SDS011;10367;52.202;5.996;2024-01-30T10:46:11;24.37;;;19.10;;
20415;SDS011;10367;52.202;5.996;2024-01-30T10:48:56;25.77;;;19.87;;
20415;SDS011;10367;52.202;5.996;2024-01-30T10:51:26;21.53;;;18.07;;
20415;SDS011;10367;52.202;5.996;2024-01-30T10:53:56;27.67;;;19.90;;
20415;SDS011;10367;52.202;5.996;2024-01-30T10:56:25;34.27;;;20.23;;
20415;SDS011;10367;52.202;5.996;2024-01-30T10:58:56;25.17;;;18.97;;
20415;SDS011;10367;52.202;5.996;2024-01-30T11:01:25;28.77;;;19.77;;
20415;SDS011;10367;52.202;5.996;2024-01-30T11:03:55;26.93;;;20.87;;
20415;SDS011;10367;52.202;5.996;2024-01-30T11:06:25;26.90;;;19.47;;
20415;SDS011;10367;52.202;5.996;2024-01-30T11:09:00;29.27;;;20.57;;
20415;SDS011;10367;52.202;5.996;2024-01-30T11:11:31;24.73;;;18.77;;
20415;SDS011;10367;52.202;5.996;2024-01-30T11:14:01;32.07;;;19.93;;
20415;SDS011;10367;52.202;5.996;2024-01-30T11:16:31;30.47;;;19.73;;
20415;SDS011;10367;52.202;5.996;2024-01-30T11:19:01;26.03;;;19.77;;
20415;SDS011;10367;52.202;5.996;2024-01-30T11:21:30;21.93;;;16.93;;
20415;SDS011;10367;52.202;5.996;2024-01-30T11:23:59;24.23;;;17.57;;
20415;SDS011;10367;52.202;5.996;2024-01-30T11:26:30;20.00;;;16.00;;
20415;SDS011;10367;52.202;5.996;2024-01-30T11:29:06;20.90;;;15.90;;
20415;SDS011;10367;52.202;5.996;2024-01-30T11:31:36;19.53;;;17.47;;
20415;SDS011;10367;52.202;5.996;2024-01-30T11:34:05;25.47;;;18.67;;
20415;SDS011;10367;52.202;5.996;2024-01-30T11:36:36;18.10;;;16.20;;
20415;SDS011;10367;52.202;5.996;2024-01-30T11:39:05;22.50;;;18.37;;
20415;SDS011;10367;52.202;5.996;2024-01-30T11:41:35;19.97;;;17.33;;
20415;SDS011;10367;52.202;5.996;2024-01-30T11:44:08;21.23;;;18.13;;
20415;SDS011;10367;52.202;5.996;2024-01-30T11:46:36;21.83;;;18.57;;
20415;SDS011;10367;52.202;5.996;2024-01-30T11:49:05;26.10;;;19.17;;
20415;SDS011;10367;52.202;5.996;2024-01-30T11:51:34;20.23;;;17.47;;
20415;SDS011;10367;52.202;5.996;2024-01-30T11:54:03;23.90;;;17.27;;
20415;SDS011;10367;52.202;5.996;2024-01-30T11:56:32;18.43;;;16.53;;
20415;SDS011;10367;52.202;5.996;2024-01-30T11:59:01;26.40;;;18.90;;
20415;SDS011;10367;52.202;5.996;2024-01-30T12:01:31;18.00;;;16.33;;
20415;SDS011;10367;52.202;5.996;2024-01-30T12:04:00;18.90;;;16.97;;
20415;SDS011;10367;52.202;5.996;2024-01-30T12:06:30;22.40;;;15.90;;
20415;SDS011;10367;52.202;5.996;2024-01-30T12:09:00;19.23;;;17.03;;
20415;SDS011;10367;52.202;5.996;2024-01-30T12:11:31;17.50;;;15.20;;
20415;SDS011;10367;52.202;5.996;2024-01-30T12:13:59;18.67;;;16.77;;
20415;SDS011;10367;52.202;5.996;2024-01-30T12:16:28;18.47;;;16.50;;
20415;SDS011;10367;52.202;5.996;2024-01-30T12:18:59;18.27;;;16.00;;
20415;SDS011;10367;52.202;5.996;2024-01-30T12:21:29;19.37;;;17.13;;
20415;SDS011;10367;52.202;5.996;2024-01-30T12:23:58;20.57;;;16.57;;
20415;SDS011;10367;52.202;5.996;2024-01-30T12:26:28;19.10;;;17.07;;
20415;SDS011;10367;52.202;5.996;2024-01-30T12:28:57;19.00;;;17.17;;
20415;SDS011;10367;52.202;5.996;2024-01-30T12:31:26;16.33;;;14.80;;
20415;SDS011;10367;52.202;5.996;2024-01-30T12:33:58;17.07;;;15.53;;
20415;SDS011;10367;52.202;5.996;2024-01-30T12:36:28;17.13;;;15.27;;
20415;SDS011;10367;52.202;5.996;2024-01-30T12:38:57;18.70;;;15.93;;
20415;SDS011;10367;52.202;5.996;2024-01-30T12:41:26;16.93;;;15.33;;
20415;SDS011;10367;52.202;5.996;2024-01-30T12:43:57;15.30;;;14.00;;
20415;SDS011;10367;52.202;5.996;2024-01-30T12:46:27;17.13;;;15.50;;
20415;SDS011;10367;52.202;5.996;2024-01-30T12:48:58;17.97;;;15.83;;
20415;SDS011;10367;52.202;5.996;2024-01-30T12:51:27;15.70;;;14.17;;
20415;SDS011;10367;52.202;5.996;2024-01-30T12:53:56;19.93;;;14.53;;
20415;SDS011;10367;52.202;5.996;2024-01-30T12:56:25;17.13;;;15.07;;
20415;SDS011;10367;52.202;5.996;2024-01-30T12:58:54;17.20;;;14.63;;
20415;SDS011;10367;52.202;5.996;2024-01-30T13:01:23;14.73;;;13.40;;
20415;SDS011;10367;52.202;5.996;2024-01-30T13:03:52;18.30;;;16.40;;
20415;SDS011;10367;52.202;5.996;2024-01-30T13:06:22;15.53;;;14.13;;
20415;SDS011;10367;52.202;5.996;2024-01-30T13:08:51;16.43;;;14.80;;
20415;SDS011;10367;52.202;5.996;2024-01-30T13:11:20;15.97;;;14.13;;
20415;SDS011;10367;52.202;5.996;2024-01-30T13:13:49;16.13;;;14.50;;
20415;SDS011;10367;52.202;5.996;2024-01-30T13:16:17;19.47;;;15.00;;
20415;SDS011;10367;52.202;5.996;2024-01-30T13:18:46;15.27;;;13.77;;
20415;SDS011;10367;52.202;5.996;2024-01-30T13:21:15;14.57;;;13.37;;
20415;SDS011;10367;52.202;5.996;2024-01-30T13:23:45;16.87;;;15.20;;
20415;SDS011;10367;52.202;5.996;2024-01-30T13:26:14;17.00;;;15.13;;
20415;SDS011;10367;52.202;5.996;2024-01-30T13:28:43;15.37;;;13.87;;
20415;SDS011;10367;52.202;5.996;2024-01-30T13:31:11;15.03;;;13.53;;
20415;SDS011;10367;52.202;5.996;2024-01-30T13:33:41;16.13;;;14.33;;
20415;SDS011;10367;52.202;5.996;2024-01-30T13:36:10;16.40;;;14.77;;
20415;SDS011;10367;52.202;5.996;2024-01-30T13:38:40;15.03;;;13.40;;
20415;SDS011;10367;52.202;5.996;2024-01-30T13:41:10;16.03;;;14.07;;
20415;SDS011;10367;52.202;5.996;2024-01-30T13:43:38;13.83;;;12.73;;
20415;SDS011;10367;52.202;5.996;2024-01-30T13:46:08;14.80;;;13.40;;
20415;SDS011;10367;52.202;5.996;2024-01-30T13:48:36;15.00;;;13.23;;
20415;SDS011;10367;52.202;5.996;2024-01-30T13:51:05;16.07;;;13.33;;
20415;SDS011;10367;52.202;5.996;2024-01-30T13:53:34;14.50;;;13.03;;
20415;SDS011;10367;52.202;5.996;2024-01-30T13:56:03;14.03;;;12.67;;
20415;SDS011;10367;52.202;5.996;2024-01-30T13:58:34;17.20;;;14.03;;
20415;SDS011;10367;52.202;5.996;2024-01-30T14:01:04;15.17;;;13.67;;
20415;SDS011;10367;52.202;5.996;2024-01-30T14:03:33;17.73;;;13.90;;
20415;SDS011;10367;52.202;5.996;2024-01-30T14:06:02;21.63;;;15.00;;
20415;SDS011;10367;52.202;5.996;2024-01-30T14:08:31;14.83;;;13.33;;
20415;SDS011;10367;52.202;5.996;2024-01-30T14:11:00;14.50;;;13.10;;
20415;SDS011;10367;52.202;5.996;2024-01-30T14:13:29;14.87;;;13.33;;
20415;SDS011;10367;52.202;5.996;2024-01-30T14:16:01;21.47;;;14.93;;
20415;SDS011;10367;52.202;5.996;2024-01-30T14:18:31;16.20;;;12.40;;
20415;SDS011;10367;52.202;5.996;2024-01-30T14:21:00;14.47;;;12.53;;
20415;SDS011;10367;52.202;5.996;2024-01-30T14:23:29;15.87;;;12.70;;
20415;SDS011;10367;52.202;5.996;2024-01-30T14:25:58;14.97;;;12.93;;
20415;SDS011;10367;52.202;5.996;2024-01-30T14:28:27;15.57;;;13.87;;
20415;SDS011;10367;52.202;5.996;2024-01-30T14:30:55;20.40;;;14.73;;
20415;SDS011;10367;52.202;5.996;2024-01-30T14:33:25;15.07;;;13.40;;